sensor_id;sensor_type;location;lat;lon;timestamp;temperature;humidity
64143;DHT22;50437;51.970;5.904;2023-05-16T00:02:17;9.90;99.90
64143;DHT22;50437;51.970;5.904;2023-05-16T00:04:44;9.80;99.90
64143;DHT22;50437;51.970;5.904;2023-05-16T00:07:13;9.90;99.90
64143;DHT22;50437;51.970;5.904;2023-05-16T00:09:39;9.90;99.90
64143;DHT22;50437;51.970;5.904;2023-05-16T00:12:06;9.80;99.90
64143;DHT22;50437;51.970;5.904;2023-05-16T00:14:35;9.90;99.90
64143;DHT22;50437;51.970;5.904;2023-05-16T00:17:02;9.90;99.90
64143;DHT22;50437;51.970;5.904;2023-05-16T00:19:31;9.90;99.90
64143;DHT22;50437;51.970;5.904;2023-05-16T00:21:58;9.90;99.90
64143;DHT22;50437;51.970;5.904;2023-05-16T00:24:24;9.90;99.90
64143;DHT22;50437;51.970;5.904;2023-05-16T00:26:50;9.80;99.90
64143;DHT22;50437;51.970;5.904;2023-05-16T00:29:17;9.80;99.90
64143;DHT22;50437;51.970;5.904;2023-05-16T00:31:43;9.80;99.90
64143;DHT22;50437;51.970;5.904;2023-05-16T00:34:12;9.70;99.90
64143;DHT22;50437;51.970;5.904;2023-05-16T00:36:38;9.80;99.90
64143;DHT22;50437;51.970;5.904;2023-05-16T00:39:04;9.60;99.90
64143;DHT22;50437;51.970;5.904;2023-05-16T00:41:32;9.60;99.90
64143;DHT22;50437;51.970;5.904;2023-05-16T00:43:59;9.50;99.90
64143;DHT22;50437;51.970;5.904;2023-05-16T00:46:30;9.50;99.90
64143;DHT22;50437;51.970;5.904;2023-05-16T00:48:57;9.40;99.90
64143;DHT22;50437;51.970;5.904;2023-05-16T00:51:23;9.40;99.90
64143;DHT22;50437;51.970;5.904;2023-05-16T00:53:53;9.40;99.90
64143;DHT22;50437;51.970;5.904;2023-05-16T00:56:21;9.50;99.90
64143;DHT22;50437;51.970;5.904;2023-05-16T00:58:49;9.30;99.90
64143;DHT22;50437;51.970;5.904;2023-05-16T01:01:16;9.30;99.90
64143;DHT22;50437;51.970;5.904;2023-05-16T01:03:43;9.10;99.90
64143;DHT22;50437;51.970;5.904;2023-05-16T01:06:12;9.20;99.90
64143;DHT22;50437;51.970;5.904;2023-05-16T01:08:38;9.10;99.90
64143;DHT22;50437;51.970;5.904;2023-05-16T01:11:08;9.00;99.90
64143;DHT22;50437;51.970;5.904;2023-05-16T01:21:43;8.90;99.90
64143;DHT22;50437;51.970;5.904;2023-05-16T01:24:13;8.90;99.90
64143;DHT22;50437;51.970;5.904;2023-05-16T01:26:41;8.80;99.90
64143;DHT22;50437;51.970;5.904;2023-05-16T01:29:08;8.80;99.90
64143;DHT22;50437;51.970;5.904;2023-05-16T01:31:34;8.70;99.90
64143;DHT22;50437;51.970;5.904;2023-05-16T01:34:01;8.70;99.90
64143;DHT22;50437;51.970;5.904;2023-05-16T01:39:10;8.60;99.90
64143;DHT22;50437;51.970;5.904;2023-05-16T01:44:24;8.50;99.90
64143;DHT22;50437;51.970;5.904;2023-05-16T01:46:53;8.50;99.90
64143;DHT22;50437;51.970;5.904;2023-05-16T01:49:30;8.40;99.90
64143;DHT22;50437;51.970;5.904;2023-05-16T01:52:04;8.40;99.90
64143;DHT22;50437;51.970;5.904;2023-05-16T01:54:31;8.40;99.90
64143;DHT22;50437;51.970;5.904;2023-05-16T01:57:02;8.40;99.90
64143;DHT22;50437;51.970;5.904;2023-05-16T01:59:29;8.30;99.90
64143;DHT22;50437;51.970;5.904;2023-05-16T02:01:57;8.30;99.90
64143;DHT22;50437;51.970;5.904;2023-05-16T02:04:24;8.30;99.90
64143;DHT22;50437;51.970;5.904;2023-05-16T02:06:54;8.30;99.90
64143;DHT22;50437;51.970;5.904;2023-05-16T02:09:22;8.30;99.90
64143;DHT22;50437;51.970;5.904;2023-05-16T02:12:39;8.30;99.90
64143;DHT22;50437;51.970;5.904;2023-05-16T02:18:10;8.40;99.90
64143;DHT22;50437;51.970;5.904;2023-05-16T02:20:37;8.40;99.90
64143;DHT22;50437;51.970;5.904;2023-05-16T02:23:04;8.40;99.90
64143;DHT22;50437;51.970;5.904;2023-05-16T02:25:31;8.20;99.90
64143;DHT22;50437;51.970;5.904;2023-05-16T02:28:12;8.10;99.90
64143;DHT22;50437;51.970;5.904;2023-05-16T02:30:40;8.10;99.90
64143;DHT22;50437;51.970;5.904;2023-05-16T02:33:07;8.20;99.90
64143;DHT22;50437;51.970;5.904;2023-05-16T02:35:34;8.20;99.90
64143;DHT22;50437;51.970;5.904;2023-05-16T02:38:08;8.20;99.90
64143;DHT22;50437;51.970;5.904;2023-05-16T02:40:37;8.20;99.90
64143;DHT22;50437;51.970;5.904;2023-05-16T02:43:03;8.40;99.90
64143;DHT22;50437;51.970;5.904;2023-05-16T02:45:31;8.30;99.90
64143;DHT22;50437;51.970;5.904;2023-05-16T02:48:01;8.20;99.90
64143;DHT22;50437;51.970;5.904;2023-05-16T02:50:33;8.10;99.90
64143;DHT22;50437;51.970;5.904;2023-05-16T02:53:34;8.20;99.90
64143;DHT22;50437;51.970;5.904;2023-05-16T02:56:24;8.20;99.90
64143;DHT22;50437;51.970;5.904;2023-05-16T02:58:58;8.10;99.90
64143;DHT22;50437;51.970;5.904;2023-05-16T03:01:24;8.10;99.90
64143;DHT22;50437;51.970;5.904;2023-05-16T03:03:51;8.10;99.90
64143;DHT22;50437;51.970;5.904;2023-05-16T03:06:20;8.00;99.90
64143;DHT22;50437;51.970;5.904;2023-05-16T03:09:06;7.90;99.90
64143;DHT22;50437;51.970;5.904;2023-05-16T03:11:35;7.90;99.90
64143;DHT22;50437;51.970;5.904;2023-05-16T03:16:43;7.90;99.90
64143;DHT22;50437;51.970;5.904;2023-05-16T03:19:15;8.00;99.90
64143;DHT22;50437;51.970;5.904;2023-05-16T03:21:42;8.00;99.90
64143;DHT22;50437;51.970;5.904;2023-05-16T03:24:11;8.10;99.90
64143;DHT22;50437;51.970;5.904;2023-05-16T03:27:00;8.00;99.90
64143;DHT22;50437;51.970;5.904;2023-05-16T03:29:30;8.00;99.90
64143;DHT22;50437;51.970;5.904;2023-05-16T03:32:10;8.00;99.90
64143;DHT22;50437;51.970;5.904;2023-05-16T03:34:36;8.00;99.90
64143;DHT22;50437;51.970;5.904;2023-05-16T03:37:02;8.00;99.90
64143;DHT22;50437;51.970;5.904;2023-05-16T03:39:28;8.00;99.90
64143;DHT22;50437;51.970;5.904;2023-05-16T03:41:54;8.10;99.90
64143;DHT22;50437;51.970;5.904;2023-05-16T03:44:22;8.20;99.90
64143;DHT22;50437;51.970;5.904;2023-05-16T03:46:48;8.20;99.90
64143;DHT22;50437;51.970;5.904;2023-05-16T03:49:16;8.20;99.90
64143;DHT22;50437;51.970;5.904;2023-05-16T03:51:43;8.10;99.90
64143;DHT22;50437;51.970;5.904;2023-05-16T03:54:11;8.20;99.90
64143;DHT22;50437;51.970;5.904;2023-05-16T03:56:37;8.20;99.90
64143;DHT22;50437;51.970;5.904;2023-05-16T03:59:03;8.30;99.90
64143;DHT22;50437;51.970;5.904;2023-05-16T04:01:29;8.50;99.90
64143;DHT22;50437;51.970;5.904;2023-05-16T04:03:58;8.60;99.90
64143;DHT22;50437;51.970;5.904;2023-05-16T04:06:24;8.70;99.90
64143;DHT22;50437;51.970;5.904;2023-05-16T04:08:51;8.80;99.90
64143;DHT22;50437;51.970;5.904;2023-05-16T04:11:17;8.90;99.90
64143;DHT22;50437;51.970;5.904;2023-05-16T04:13:44;8.60;99.90
64143;DHT22;50437;51.970;5.904;2023-05-16T04:16:11;8.70;99.90
64143;DHT22;50437;51.970;5.904;2023-05-16T04:18:37;8.80;99.90
64143;DHT22;50437;51.970;5.904;2023-05-16T04:21:03;8.70;99.90
64143;DHT22;50437;51.970;5.904;2023-05-16T04:23:34;8.90;99.90
64143;DHT22;50437;51.970;5.904;2023-05-16T04:26:00;8.90;99.90
64143;DHT22;50437;51.970;5.904;2023-05-16T04:28:26;8.90;99.90
64143;DHT22;50437;51.970;5.904;2023-05-16T04:30:54;8.80;99.90
64143;DHT22;50437;51.970;5.904;2023-05-16T04:33:20;8.70;99.90
64143;DHT22;50437;51.970;5.904;2023-05-16T04:35:47;8.80;99.90
64143;DHT22;50437;51.970;5.904;2023-05-16T04:38:13;8.90;99.90
64143;DHT22;50437;51.970;5.904;2023-05-16T04:40:39;8.70;99.90
64143;DHT22;50437;51.970;5.904;2023-05-16T04:43:06;8.80;99.90
64143;DHT22;50437;51.970;5.904;2023-05-16T04:45:33;8.80;99.90
64143;DHT22;50437;51.970;5.904;2023-05-16T04:47:59;8.60;99.90
64143;DHT22;50437;51.970;5.904;2023-05-16T04:50:30;8.70;99.90
64143;DHT22;50437;51.970;5.904;2023-05-16T04:52:56;8.70;99.90
64143;DHT22;50437;51.970;5.904;2023-05-16T04:55:24;8.50;99.90
64143;DHT22;50437;51.970;5.904;2023-05-16T04:57:52;8.60;99.90
64143;DHT22;50437;51.970;5.904;2023-05-16T05:00:18;8.60;99.90
64143;DHT22;50437;51.970;5.904;2023-05-16T05:02:45;8.70;99.90
64143;DHT22;50437;51.970;5.904;2023-05-16T05:05:11;8.80;99.90
64143;DHT22;50437;51.970;5.904;2023-05-16T05:07:39;8.80;99.90
64143;DHT22;50437;51.970;5.904;2023-05-16T05:10:05;8.70;99.90
64143;DHT22;50437;51.970;5.904;2023-05-16T05:12:32;8.60;99.90
64143;DHT22;50437;51.970;5.904;2023-05-16T05:14:58;8.70;99.90
64143;DHT22;50437;51.970;5.904;2023-05-16T05:17:24;8.80;99.90
64143;DHT22;50437;51.970;5.904;2023-05-16T05:19:50;8.90;99.90
64143;DHT22;50437;51.970;5.904;2023-05-16T05:22:17;8.80;99.90
64143;DHT22;50437;51.970;5.904;2023-05-16T05:24:43;9.30;99.90
64143;DHT22;50437;51.970;5.904;2023-05-16T05:27:09;9.40;99.90
64143;DHT22;50437;51.970;5.904;2023-05-16T05:29:37;9.70;99.90
64143;DHT22;50437;51.970;5.904;2023-05-16T05:32:04;10.00;99.90
64143;DHT22;50437;51.970;5.904;2023-05-16T05:34:30;9.90;99.90
64143;DHT22;50437;51.970;5.904;2023-05-16T05:36:57;9.70;99.90
64143;DHT22;50437;51.970;5.904;2023-05-16T05:39:23;9.60;99.90
64143;DHT22;50437;51.970;5.904;2023-05-16T05:41:49;9.60;99.90
64143;DHT22;50437;51.970;5.904;2023-05-16T05:44:17;9.60;99.90
64143;DHT22;50437;51.970;5.904;2023-05-16T05:46:45;9.70;99.90
64143;DHT22;50437;51.970;5.904;2023-05-16T05:49:11;9.50;99.90
64143;DHT22;50437;51.970;5.904;2023-05-16T05:51:37;9.60;99.90
64143;DHT22;50437;51.970;5.904;2023-05-16T05:54:05;9.50;99.90
64143;DHT22;50437;51.970;5.904;2023-05-16T05:56:34;9.60;99.90
64143;DHT22;50437;51.970;5.904;2023-05-16T05:59:00;9.40;99.90
64143;DHT22;50437;51.970;5.904;2023-05-16T06:01:26;9.70;99.90
64143;DHT22;50437;51.970;5.904;2023-05-16T06:03:52;9.80;99.90
64143;DHT22;50437;51.970;5.904;2023-05-16T06:06:21;9.70;99.90
64143;DHT22;50437;51.970;5.904;2023-05-16T06:08:47;9.60;99.90
64143;DHT22;50437;51.970;5.904;2023-05-16T06:11:14;9.80;99.90
64143;DHT22;50437;51.970;5.904;2023-05-16T06:13:44;9.90;99.90
64143;DHT22;50437;51.970;5.904;2023-05-16T06:16:12;9.90;99.90
64143;DHT22;50437;51.970;5.904;2023-05-16T06:18:38;10.30;99.90
64143;DHT22;50437;51.970;5.904;2023-05-16T06:21:04;10.40;99.90
64143;DHT22;50437;51.970;5.904;2023-05-16T06:23:31;10.70;99.90
64143;DHT22;50437;51.970;5.904;2023-05-16T06:25:58;10.80;99.90
64143;DHT22;50437;51.970;5.904;2023-05-16T06:28:30;10.60;99.90
64143;DHT22;50437;51.970;5.904;2023-05-16T06:30:56;10.70;99.90
64143;DHT22;50437;51.970;5.904;2023-05-16T06:33:22;10.90;99.90
64143;DHT22;50437;51.970;5.904;2023-05-16T06:35:49;11.00;99.90
64143;DHT22;50437;51.970;5.904;2023-05-16T06:38:17;11.10;99.90
64143;DHT22;50437;51.970;5.904;2023-05-16T06:40:44;10.90;99.90
64143;DHT22;50437;51.970;5.904;2023-05-16T06:43:10;11.00;99.90
64143;DHT22;50437;51.970;5.904;2023-05-16T06:45:39;10.80;99.90
64143;DHT22;50437;51.970;5.904;2023-05-16T06:48:06;11.00;99.90
64143;DHT22;50437;51.970;5.904;2023-05-16T06:50:32;11.30;99.90
64143;DHT22;50437;51.970;5.904;2023-05-16T06:53:00;10.90;99.90
64143;DHT22;50437;51.970;5.904;2023-05-16T06:55:26;11.00;99.90
64143;DHT22;50437;51.970;5.904;2023-05-16T06:57:52;11.70;99.90
64143;DHT22;50437;51.970;5.904;2023-05-16T07:00:18;14.40;99.90
64143;DHT22;50437;51.970;5.904;2023-05-16T07:02:44;16.70;99.90
64143;DHT22;50437;51.970;5.904;2023-05-16T07:05:10;17.90;98.60
64143;DHT22;50437;51.970;5.904;2023-05-16T07:07:37;18.20;90.30
64143;DHT22;50437;51.970;5.904;2023-05-16T07:10:03;18.70;86.20
64143;DHT22;50437;51.970;5.904;2023-05-16T07:12:29;19.20;80.40
64143;DHT22;50437;51.970;5.904;2023-05-16T07:14:56;19.50;75.70
64143;DHT22;50437;51.970;5.904;2023-05-16T07:17:22;18.90;71.50
64143;DHT22;50437;51.970;5.904;2023-05-16T07:19:48;20.00;69.30
64143;DHT22;50437;51.970;5.904;2023-05-16T07:22:14;20.20;63.30
64143;DHT22;50437;51.970;5.904;2023-05-16T07:24:41;19.30;59.60
64143;DHT22;50437;51.970;5.904;2023-05-16T07:27:08;17.10;67.30
64143;DHT22;50437;51.970;5.904;2023-05-16T07:29:34;16.30;76.90
64143;DHT22;50437;51.970;5.904;2023-05-16T07:32:02;15.10;90.50
64143;DHT22;50437;51.970;5.904;2023-05-16T07:34:28;14.10;99.90
64143;DHT22;50437;51.970;5.904;2023-05-16T07:36:54;13.30;99.90
64143;DHT22;50437;51.970;5.904;2023-05-16T07:39:21;13.20;99.90
64143;DHT22;50437;51.970;5.904;2023-05-16T07:41:47;13.00;99.90
64143;DHT22;50437;51.970;5.904;2023-05-16T07:44:13;15.30;99.90
64143;DHT22;50437;51.970;5.904;2023-05-16T07:46:39;17.90;95.00
64143;DHT22;50437;51.970;5.904;2023-05-16T07:49:06;17.60;76.60
64143;DHT22;50437;51.970;5.904;2023-05-16T07:51:32;16.40;79.50
64143;DHT22;50437;51.970;5.904;2023-05-16T07:53:58;15.40;78.60
64143;DHT22;50437;51.970;5.904;2023-05-16T07:56:24;13.90;90.50
64143;DHT22;50437;51.970;5.904;2023-05-16T07:58:50;13.40;95.40
64143;DHT22;50437;51.970;5.904;2023-05-16T08:01:16;15.10;99.90
64143;DHT22;50437;51.970;5.904;2023-05-16T08:03:42;15.60;99.80
64143;DHT22;50437;51.970;5.904;2023-05-16T08:06:09;17.20;93.30
64143;DHT22;50437;51.970;5.904;2023-05-16T08:08:35;15.50;87.80
64143;DHT22;50437;51.970;5.904;2023-05-16T08:11:01;16.10;90.60
64143;DHT22;50437;51.970;5.904;2023-05-16T08:13:27;16.90;89.40
64143;DHT22;50437;51.970;5.904;2023-05-16T08:15:53;18.10;77.20
64143;DHT22;50437;51.970;5.904;2023-05-16T08:18:19;17.80;68.60
64143;DHT22;50437;51.970;5.904;2023-05-16T08:20:45;18.70;64.20
64143;DHT22;50437;51.970;5.904;2023-05-16T08:23:12;17.30;63.70
64143;DHT22;50437;51.970;5.904;2023-05-16T08:25:38;16.50;67.80
64143;DHT22;50437;51.970;5.904;2023-05-16T08:28:04;15.60;73.60
64143;DHT22;50437;51.970;5.904;2023-05-16T08:30:31;15.30;80.70
64143;DHT22;50437;51.970;5.904;2023-05-16T08:32:57;14.40;85.20
64143;DHT22;50437;51.970;5.904;2023-05-16T08:35:23;14.10;98.70
64143;DHT22;50437;51.970;5.904;2023-05-16T08:37:49;13.30;99.90
64143;DHT22;50437;51.970;5.904;2023-05-16T08:40:15;13.20;99.90
64143;DHT22;50437;51.970;5.904;2023-05-16T08:42:41;15.80;99.90
64143;DHT22;50437;51.970;5.904;2023-05-16T08:45:07;16.50;94.20
64143;DHT22;50437;51.970;5.904;2023-05-16T08:47:33;18.00;85.30
64143;DHT22;50437;51.970;5.904;2023-05-16T08:50:02;18.90;71.00
64143;DHT22;50437;51.970;5.904;2023-05-16T08:52:29;18.00;67.80
64143;DHT22;50437;51.970;5.904;2023-05-16T08:55:01;17.00;69.40
64143;DHT22;50437;51.970;5.904;2023-05-16T08:57:30;17.90;69.80
64143;DHT22;50437;51.970;5.904;2023-05-16T08:59:59;18.30;63.60
64143;DHT22;50437;51.970;5.904;2023-05-16T09:02:26;17.50;64.90
64143;DHT22;50437;51.970;5.904;2023-05-16T09:04:53;19.00;66.20
64143;DHT22;50437;51.970;5.904;2023-05-16T09:07:19;19.60;59.20
64143;DHT22;50437;51.970;5.904;2023-05-16T09:09:49;19.40;60.20
64143;DHT22;50437;51.970;5.904;2023-05-16T09:12:16;20.60;56.90
64143;DHT22;50437;51.970;5.904;2023-05-16T09:14:43;20.40;54.40
64143;DHT22;50437;51.970;5.904;2023-05-16T09:17:10;20.90;53.80
64143;DHT22;50437;51.970;5.904;2023-05-16T09:19:39;19.10;53.30
64143;DHT22;50437;51.970;5.904;2023-05-16T09:22:06;19.90;53.80
64143;DHT22;50437;51.970;5.904;2023-05-16T09:24:39;18.70;56.80
64143;DHT22;50437;51.970;5.904;2023-05-16T09:27:09;18.50;56.80
64143;DHT22;50437;51.970;5.904;2023-05-16T09:29:36;17.10;61.00
64143;DHT22;50437;51.970;5.904;2023-05-16T09:32:11;17.70;62.60
64143;DHT22;50437;51.970;5.904;2023-05-16T09:34:43;17.00;61.10
64143;DHT22;50437;51.970;5.904;2023-05-16T09:37:10;16.20;63.70
64143;DHT22;50437;51.970;5.904;2023-05-16T09:39:47;15.60;69.00
64143;DHT22;50437;51.970;5.904;2023-05-16T09:42:14;14.80;70.10
64143;DHT22;50437;51.970;5.904;2023-05-16T09:44:40;14.40;74.90
64143;DHT22;50437;51.970;5.904;2023-05-16T09:47:07;14.40;77.70
64143;DHT22;50437;51.970;5.904;2023-05-16T09:49:35;16.40;78.10
64143;DHT22;50437;51.970;5.904;2023-05-16T09:52:02;18.20;69.00
64143;DHT22;50437;51.970;5.904;2023-05-16T09:54:31;20.50;59.70
64143;DHT22;50437;51.970;5.904;2023-05-16T09:56:58;21.40;52.20
64143;DHT22;50437;51.970;5.904;2023-05-16T09:59:29;21.50;50.80
64143;DHT22;50437;51.970;5.904;2023-05-16T10:01:57;20.30;51.60
64143;DHT22;50437;51.970;5.904;2023-05-16T10:04:27;18.10;53.70
64143;DHT22;50437;51.970;5.904;2023-05-16T10:06:59;16.30;58.90
64143;DHT22;50437;51.970;5.904;2023-05-16T10:09:26;16.90;62.10
64143;DHT22;50437;51.970;5.904;2023-05-16T10:11:52;17.50;57.80
64143;DHT22;50437;51.970;5.904;2023-05-16T10:14:19;19.60;57.00
64143;DHT22;50437;51.970;5.904;2023-05-16T10:16:46;20.90;50.50
64143;DHT22;50437;51.970;5.904;2023-05-16T10:19:14;21.70;48.60
64143;DHT22;50437;51.970;5.904;2023-05-16T10:21:45;20.70;47.90
64143;DHT22;50437;51.970;5.904;2023-05-16T10:24:13;18.40;49.00
64143;DHT22;50437;51.970;5.904;2023-05-16T10:26:43;16.90;53.90
64143;DHT22;50437;51.970;5.904;2023-05-16T10:29:12;16.30;58.20
64143;DHT22;50437;51.970;5.904;2023-05-16T10:31:38;16.30;61.10
64143;DHT22;50437;51.970;5.904;2023-05-16T10:34:04;17.80;60.20
64143;DHT22;50437;51.970;5.904;2023-05-16T10:36:34;19.30;57.80
64143;DHT22;50437;51.970;5.904;2023-05-16T10:39:00;18.80;51.70
64143;DHT22;50437;51.970;5.904;2023-05-16T10:41:28;18.70;52.40
64143;DHT22;50437;51.970;5.904;2023-05-16T10:43:57;18.10;53.10
64143;DHT22;50437;51.970;5.904;2023-05-16T10:46:23;18.40;55.80
64143;DHT22;50437;51.970;5.904;2023-05-16T10:48:49;18.20;55.30
64143;DHT22;50437;51.970;5.904;2023-05-16T10:53:52;19.00;47.70
64143;DHT22;50437;51.970;5.904;2023-05-16T10:56:22;20.40;49.40
64143;DHT22;50437;51.970;5.904;2023-05-16T10:58:48;18.50;49.30
64143;DHT22;50437;51.970;5.904;2023-05-16T11:01:19;16.80;54.70
64143;DHT22;50437;51.970;5.904;2023-05-16T11:08:59;16.50;58.30
64143;DHT22;50437;51.970;5.904;2023-05-16T11:11:45;18.10;56.50
64143;DHT22;50437;51.970;5.904;2023-05-16T11:16:50;17.40;54.20
64143;DHT22;50437;51.970;5.904;2023-05-16T11:24:47;17.20;53.60
64143;DHT22;50437;51.970;5.904;2023-05-16T11:27:17;17.30;55.10
64143;DHT22;50437;51.970;5.904;2023-05-16T11:29:44;17.50;54.30
64143;DHT22;50437;51.970;5.904;2023-05-16T11:32:11;17.80;54.70
64143;DHT22;50437;51.970;5.904;2023-05-16T11:34:37;18.40;51.90
64143;DHT22;50437;51.970;5.904;2023-05-16T11:37:04;18.20;53.40
64143;DHT22;50437;51.970;5.904;2023-05-16T11:39:31;17.70;52.20
64143;DHT22;50437;51.970;5.904;2023-05-16T11:41:58;17.90;52.50
64143;DHT22;50437;51.970;5.904;2023-05-16T11:44:25;17.90;51.60
64143;DHT22;50437;51.970;5.904;2023-05-16T11:46:52;17.30;51.30
64143;DHT22;50437;51.970;5.904;2023-05-16T11:49:18;16.80;55.70
64143;DHT22;50437;51.970;5.904;2023-05-16T11:51:44;16.50;54.00
64143;DHT22;50437;51.970;5.904;2023-05-16T11:54:11;16.40;56.20
64143;DHT22;50437;51.970;5.904;2023-05-16T11:56:41;16.40;52.70
64143;DHT22;50437;51.970;5.904;2023-05-16T11:59:07;16.20;56.90
64143;DHT22;50437;51.970;5.904;2023-05-16T12:01:37;16.20;55.70
64143;DHT22;50437;51.970;5.904;2023-05-16T12:04:21;16.10;57.30
64143;DHT22;50437;51.970;5.904;2023-05-16T12:06:56;16.50;56.30
64143;DHT22;50437;51.970;5.904;2023-05-16T12:09:24;16.40;55.70
64143;DHT22;50437;51.970;5.904;2023-05-16T12:11:51;16.70;56.20
64143;DHT22;50437;51.970;5.904;2023-05-16T12:14:17;16.90;53.50
64143;DHT22;50437;51.970;5.904;2023-05-16T12:16:43;16.70;54.90
64143;DHT22;50437;51.970;5.904;2023-05-16T12:19:13;16.10;53.80
64143;DHT22;50437;51.970;5.904;2023-05-16T12:21:40;15.90;56.40
64143;DHT22;50437;51.970;5.904;2023-05-16T12:24:20;16.70;56.20
64143;DHT22;50437;51.970;5.904;2023-05-16T12:26:52;17.30;54.90
64143;DHT22;50437;51.970;5.904;2023-05-16T12:29:18;17.10;52.60
64143;DHT22;50437;51.970;5.904;2023-05-16T12:31:51;17.60;55.80
64143;DHT22;50437;51.970;5.904;2023-05-16T12:34:18;17.70;53.10
64143;DHT22;50437;51.970;5.904;2023-05-16T12:36:49;17.50;52.90
64143;DHT22;50437;51.970;5.904;2023-05-16T12:39:17;17.50;55.70
64143;DHT22;50437;51.970;5.904;2023-05-16T12:41:46;17.30;55.30
64143;DHT22;50437;51.970;5.904;2023-05-16T12:44:28;16.90;54.40
64143;DHT22;50437;51.970;5.904;2023-05-16T12:46:59;16.40;55.50
64143;DHT22;50437;51.970;5.904;2023-05-16T12:50:15;16.20;54.60
64143;DHT22;50437;51.970;5.904;2023-05-16T12:53:48;16.10;55.30
64143;DHT22;50437;51.970;5.904;2023-05-16T12:56:17;16.10;57.70
64143;DHT22;50437;51.970;5.904;2023-05-16T12:59:06;15.50;58.00
64143;DHT22;50437;51.970;5.904;2023-05-16T13:01:59;15.30;59.50
64143;DHT22;50437;51.970;5.904;2023-05-16T13:04:26;14.90;61.10
64143;DHT22;50437;51.970;5.904;2023-05-16T13:06:52;14.80;61.00
64143;DHT22;50437;51.970;5.904;2023-05-16T13:09:23;15.00;61.40
64143;DHT22;50437;51.970;5.904;2023-05-16T13:11:49;15.00;62.60
64143;DHT22;50437;51.970;5.904;2023-05-16T13:14:18;15.30;65.20
64143;DHT22;50437;51.970;5.904;2023-05-16T13:16:44;15.50;62.10
64143;DHT22;50437;51.970;5.904;2023-05-16T13:19:10;15.60;64.30
64143;DHT22;50437;51.970;5.904;2023-05-16T13:21:50;15.40;63.20
64143;DHT22;50437;51.970;5.904;2023-05-16T13:24:50;16.00;65.00
64143;DHT22;50437;51.970;5.904;2023-05-16T13:27:17;15.90;63.90
64143;DHT22;50437;51.970;5.904;2023-05-16T13:29:45;15.90;62.80
64143;DHT22;50437;51.970;5.904;2023-05-16T13:35:46;16.10;62.30
64143;DHT22;50437;51.970;5.904;2023-05-16T13:38:12;16.00;64.70
64143;DHT22;50437;51.970;5.904;2023-05-16T13:41:07;16.20;65.30
64143;DHT22;50437;51.970;5.904;2023-05-16T13:43:33;15.80;63.40
64143;DHT22;50437;51.970;5.904;2023-05-16T13:46:00;15.30;65.20
64143;DHT22;50437;51.970;5.904;2023-05-16T13:48:30;15.30;67.40
64143;DHT22;50437;51.970;5.904;2023-05-16T13:50:58;15.20;65.80
64143;DHT22;50437;51.970;5.904;2023-05-16T13:53:27;14.90;69.10
64143;DHT22;50437;51.970;5.904;2023-05-16T13:55:53;14.80;70.70
64143;DHT22;50437;51.970;5.904;2023-05-16T13:58:19;15.00;72.40
64143;DHT22;50437;51.970;5.904;2023-05-16T14:00:46;14.90;73.90
64143;DHT22;50437;51.970;5.904;2023-05-16T14:03:13;14.60;75.00
64143;DHT22;50437;51.970;5.904;2023-05-16T14:05:39;14.20;76.30
64143;DHT22;50437;51.970;5.904;2023-05-16T14:08:05;14.10;86.60
64143;DHT22;50437;51.970;5.904;2023-05-16T14:10:32;14.30;89.40
64143;DHT22;50437;51.970;5.904;2023-05-16T14:12:59;14.20;90.00
64143;DHT22;50437;51.970;5.904;2023-05-16T14:15:34;14.20;89.70
64143;DHT22;50437;51.970;5.904;2023-05-16T14:18:00;14.30;90.10
64143;DHT22;50437;51.970;5.904;2023-05-16T14:20:28;14.10;91.40
64143;DHT22;50437;51.970;5.904;2023-05-16T14:22:58;14.20;93.20
64143;DHT22;50437;51.970;5.904;2023-05-16T14:26:32;14.30;95.10
64143;DHT22;50437;51.970;5.904;2023-05-16T14:29:03;14.30;93.40
64143;DHT22;50437;51.970;5.904;2023-05-16T14:31:34;14.50;94.40
64143;DHT22;50437;51.970;5.904;2023-05-16T14:34:25;14.20;93.60
64143;DHT22;50437;51.970;5.904;2023-05-16T14:43:53;14.70;93.90
64143;DHT22;50437;51.970;5.904;2023-05-16T14:57:44;14.40;93.00
64143;DHT22;50437;51.970;5.904;2023-05-16T15:00:14;15.00;95.00
64143;DHT22;50437;51.970;5.904;2023-05-16T15:02:42;15.20;92.10
64143;DHT22;50437;51.970;5.904;2023-05-16T15:05:09;15.10;91.60
64143;DHT22;50437;51.970;5.904;2023-05-16T15:07:35;15.00;91.20
64143;DHT22;50437;51.970;5.904;2023-05-16T15:10:05;14.80;89.20
64143;DHT22;50437;51.970;5.904;2023-05-16T15:12:40;14.70;89.40
64143;DHT22;50437;51.970;5.904;2023-05-16T15:15:51;14.60;92.80
64143;DHT22;50437;51.970;5.904;2023-05-16T15:18:37;14.60;91.70
64143;DHT22;50437;51.970;5.904;2023-05-16T15:21:49;14.20;91.20
64143;DHT22;50437;51.970;5.904;2023-05-16T15:24:15;14.10;94.30
64143;DHT22;50437;51.970;5.904;2023-05-16T15:26:45;14.20;93.60
64143;DHT22;50437;51.970;5.904;2023-05-16T15:29:17;14.30;95.90
64143;DHT22;50437;51.970;5.904;2023-05-16T15:31:54;14.20;93.40
64143;DHT22;50437;51.970;5.904;2023-05-16T15:34:22;14.00;95.10
64143;DHT22;50437;51.970;5.904;2023-05-16T15:36:49;14.30;96.70
64143;DHT22;50437;51.970;5.904;2023-05-16T15:39:25;14.30;93.70
64143;DHT22;50437;51.970;5.904;2023-05-16T15:41:59;14.10;94.40
64143;DHT22;50437;51.970;5.904;2023-05-16T15:44:34;14.40;94.70
64143;DHT22;50437;51.970;5.904;2023-05-16T15:47:09;14.60;95.20
64143;DHT22;50437;51.970;5.904;2023-05-16T15:49:37;14.30;95.60
64143;DHT22;50437;51.970;5.904;2023-05-16T15:52:04;14.60;96.60
64143;DHT22;50437;51.970;5.904;2023-05-16T15:54:35;14.60;97.30
64143;DHT22;50437;51.970;5.904;2023-05-16T15:57:09;14.50;97.00
64143;DHT22;50437;51.970;5.904;2023-05-16T15:59:36;14.50;95.90
64143;DHT22;50437;51.970;5.904;2023-05-16T16:02:03;14.50;95.70
64143;DHT22;50437;51.970;5.904;2023-05-16T16:04:30;14.50;95.60
64143;DHT22;50437;51.970;5.904;2023-05-16T16:07:01;14.60;97.30
64143;DHT22;50437;51.970;5.904;2023-05-16T16:09:29;14.30;97.00
64143;DHT22;50437;51.970;5.904;2023-05-16T16:12:01;14.30;99.30
64143;DHT22;50437;51.970;5.904;2023-05-16T16:17:26;14.10;99.70
64143;DHT22;50437;51.970;5.904;2023-05-16T16:20:26;13.80;96.90
64143;DHT22;50437;51.970;5.904;2023-05-16T16:22:56;13.90;99.90
64143;DHT22;50437;51.970;5.904;2023-05-16T16:25:29;14.10;99.50
64143;DHT22;50437;51.970;5.904;2023-05-16T16:28:04;14.00;97.00
64143;DHT22;50437;51.970;5.904;2023-05-16T16:30:41;14.00;99.60
64143;DHT22;50437;51.970;5.904;2023-05-16T16:33:19;14.10;99.90
64143;DHT22;50437;51.970;5.904;2023-05-16T16:36:30;14.10;99.10
64143;DHT22;50437;51.970;5.904;2023-05-16T16:39:34;13.90;97.30
64143;DHT22;50437;51.970;5.904;2023-05-16T16:42:02;13.70;99.80
64143;DHT22;50437;51.970;5.904;2023-05-16T16:44:37;14.00;99.90
64143;DHT22;50437;51.970;5.904;2023-05-16T16:47:06;14.30;98.90
64143;DHT22;50437;51.970;5.904;2023-05-16T16:49:39;14.20;98.60
64143;DHT22;50437;51.970;5.904;2023-05-16T16:52:15;14.30;99.90
64143;DHT22;50437;51.970;5.904;2023-05-16T16:54:48;14.30;98.50